METAR Data
IDs: Format: Raw Decoded Include TAF

Data at: 1510 UTC 10 Aug 2022

KDNA 101455Z AUTO 00000KT 10SM BKN100 24/17 A3025 RMK AO2